Time;durP1;ratioP1;P1;durP2;ratioP2;P2;SDS_P1;SDS_P2;PMS_P1;PMS_P2;Temp;Humidity;BMP_temperature;BMP_pressure;BME280_temperature;BME280_humidity;BME280_pressure;Samples;Min_cycle;Max_cycle;Signal;HPM_P1;HPM_P2
2021/04/02 00:01:39;;;;;;;7.07;1.63;;;6.40;99.90;;;;;;5032706;28;20051;-57
2021/04/02 00:04:05;;;;;;;11.43;1.83;;;6.40;99.90;;;;;;5033164;28;20440;-58
2021/04/02 00:06:30;;;;;;;12.40;2.15;;;6.40;99.90;;;;;;5032636;28;20108;-60
2021/04/02 00:08:56;;;;;;;10.25;2.05;;;6.50;99.90;;;;;;5032350;28;20056;-58
2021/04/02 00:11:22;;;;;;;9.30;1.95;;;6.40;99.90;;;;;;5032967;28;20483;-59
2021/04/02 00:13:48;;;;;;;13.93;2.28;;;6.50;99.90;;;;;;5032558;28;20069;-56
2021/04/02 00:16:16;;;;;;;7.85;1.75;;;6.40;99.90;;;;;;5032694;28;20069;-60
2021/04/02 00:18:42;;;;;;;9.50;1.90;;;6.40;99.90;;;;;;5028756;28;20029;-59
2021/04/02 00:21:10;;;;;;;13.80;2.00;;;6.40;99.90;;;;;;5032854;28;20041;-58
2021/04/02 00:23:37;;;;;;;7.13;2.20;;;6.40;99.90;;;;;;5012791;28;20053;-58
2021/04/02 00:26:16;;;;;;;10.43;1.80;;;6.50;99.90;;;;;;5012769;28;20034;-59
2021/04/02 00:28:43;;;;;;;9.27;1.90;;;6.50;99.90;;;;;;5011178;28;20037;-57
2021/04/02 00:31:09;;;;;;;11.52;2.15;;;6.40;99.90;;;;;;5012733;28;20030;-61
2021/04/02 00:33:35;;;;;;;10.18;2.05;;;6.40;99.90;;;;;;5012173;28;20030;-59
2021/04/02 00:36:03;;;;;;;9.48;2.20;;;6.50;99.90;;;;;;5012553;28;20392;-58
2021/04/02 00:38:29;;;;;;;9.80;1.88;;;6.50;99.90;;;;;;5012328;28;20558;-57
2021/04/02 00:40:59;;;;;;;12.23;2.10;;;6.50;99.90;;;;;;5011856;28;20487;-61
2021/04/02 00:43:36;;;;;;;11.80;2.08;;;6.60;99.90;;;;;;5012195;28;20044;-59
2021/04/02 00:46:03;;;;;;;11.48;2.15;;;6.70;99.90;;;;;;5012225;28;20033;-60
2021/04/02 00:48:28;;;;;;;11.13;1.83;;;6.60;99.90;;;;;;5011150;28;20026;-58
2021/04/02 00:50:56;;;;;;;14.93;2.10;;;6.70;99.90;;;;;;5012011;28;20033;-56
2021/04/02 00:53:27;;;;;;;12.50;2.15;;;6.70;99.90;;;;;;5012321;28;20034;-59
2021/04/02 00:55:53;;;;;;;9.00;1.65;;;6.70;99.90;;;;;;5011597;28;20033;-57
2021/04/02 00:58:23;;;;;;;13.50;2.35;;;6.70;99.90;;;;;;5012607;28;20145;-58
2021/04/02 01:00:49;;;;;;;14.43;2.33;;;6.70;99.90;;;;;;5012011;28;20388;-56
2021/04/02 01:03:15;;;;;;;8.70;2.47;;;6.70;99.90;;;;;;5011804;28;20026;-59
2021/04/02 01:05:45;;;;;;;12.13;1.90;;;6.70;99.90;;;;;;5011382;28;20105;-57
2021/04/02 01:08:22;;;;;;;9.13;1.50;;;6.60;99.90;;;;;;5027079;28;20034;-57
2021/04/02 01:10:50;;;;;;;7.43;2.10;;;6.60;99.90;;;;;;5018699;28;20084;-57
2021/04/02 01:13:20;;;;;;;9.43;1.77;;;6.60;99.90;;;;;;5012008;28;20095;-60
2021/04/02 01:16:01;;;;;;;12.77;2.22;;;6.50;99.90;;;;;;5002615;28;20038;-56
2021/04/02 01:18:33;;;;;;;10.95;1.73;;;6.50;99.90;;;;;;5011348;28;20080;-58
2021/04/02 01:21:28;;;;;;;10.77;1.95;;;6.50;99.90;;;;;;5012160;28;20057;-56
2021/04/02 01:24:20;;;;;;;15.98;2.20;;;6.40;99.90;;;;;;5000138;28;20053;-57
2021/04/02 01:27:01;;;;;;;12.35;1.90;;;6.40;99.90;;;;;;5011720;28;20064;-57
2021/04/02 01:29:32;;;;;;;11.95;1.83;;;6.40;99.90;;;;;;5011909;28;20127;-58
2021/04/02 01:32:01;;;;;;;15.68;2.20;;;6.50;99.90;;;;;;5011863;28;20109;-57
2021/04/02 01:34:34;;;;;;;10.45;1.80;;;6.40;99.90;;;;;;5011295;28;20112;-58
2021/04/02 01:37:18;;;;;;;9.65;1.88;;;6.50;99.90;;;;;;5011585;28;20030;-59
2021/04/02 01:39:45;;;;;;;16.13;3.00;;;6.50;99.90;;;;;;5011276;28;20036;-59
2021/04/02 01:42:18;;;;;;;17.27;1.90;;;6.50;99.90;;;;;;5011319;28;20172;-57
2021/04/02 01:44:46;;;;;;;12.90;2.13;;;6.50;99.90;;;;;;5010474;28;20045;-57
2021/04/02 01:47:13;;;;;;;9.35;2.03;;;6.50;99.90;;;;;;5010691;28;20053;-58
2021/04/02 01:49:39;;;;;;;11.27;2.20;;;6.60;99.90;;;;;;5011463;28;20378;-59
2021/04/02 01:52:07;;;;;;;13.77;2.28;;;6.50;99.90;;;;;;5011655;28;20037;-58
2021/04/02 01:54:34;;;;;;;13.93;2.33;;;6.40;99.90;;;;;;5010346;28;20496;-55
2021/04/02 01:57:02;;;;;;;10.05;1.92;;;6.40;99.90;;;;;;5011232;28;20128;-58
2021/04/02 01:59:28;;;;;;;12.95;2.00;;;6.40;99.90;;;;;;5011097;28;20405;-57
2021/04/02 02:01:56;;;;;;;15.20;2.28;;;6.40;99.90;;;;;;5011097;28;20026;-58
2021/04/02 02:04:23;;;;;;;8.73;1.92;;;6.50;99.90;;;;;;5010268;28;20046;-58
2021/04/02 02:06:53;;;;;;;12.20;2.00;;;6.50;99.90;;;;;;5008300;28;20109;-58
2021/04/02 02:09:26;;;;;;;12.98;2.25;;;6.50;99.90;;;;;;5010754;28;20030;-56
2021/04/02 02:11:56;;;;;;;16.80;2.40;;;6.50;99.90;;;;;;5010923;28;20034;-58
2021/04/02 02:14:25;;;;;;;12.48;2.25;;;6.50;99.90;;;;;;5011074;28;20032;-58
2021/04/02 02:16:55;;;;;;;12.68;2.13;;;6.50;99.90;;;;;;5010860;28;20041;-57
2021/04/02 02:19:23;;;;;;;13.82;2.03;;;6.50;99.90;;;;;;5010722;28;20538;-58
2021/04/02 02:21:51;;;;;;;7.43;1.80;;;6.50;99.90;;;;;;5015082;28;20050;-57
2021/04/02 02:24:17;;;;;;;9.10;2.10;;;6.40;99.90;;;;;;5022640;28;20124;-57
2021/04/02 02:26:44;;;;;;;13.32;2.25;;;6.40;99.90;;;;;;5010475;28;20026;-59
2021/04/02 02:29:11;;;;;;;13.25;2.47;;;6.30;99.90;;;;;;5020784;28;20029;-58
2021/04/02 02:31:39;;;;;;;13.13;2.10;;;6.40;99.90;;;;;;5016591;28;20037;-59
2021/04/02 02:34:06;;;;;;;14.32;1.95;;;6.40;99.90;;;;;;5010744;28;20095;-58
2021/04/02 02:36:32;;;;;;;13.13;1.95;;;6.40;99.90;;;;;;5010868;28;20088;-58
2021/04/02 02:38:59;;;;;;;10.10;1.88;;;6.40;99.90;;;;;;5010235;28;20038;-60
2021/04/02 02:41:27;;;;;;;9.77;2.03;;;6.50;99.90;;;;;;5010983;28;20022;-58
2021/04/02 02:43:55;;;;;;;20.33;3.15;;;6.50;99.90;;;;;;5010189;28;20038;-58
2021/04/02 02:46:20;;;;;;;9.77;1.98;;;6.50;99.90;;;;;;5010392;28;20032;-58
2021/04/02 02:48:49;;;;;;;14.10;2.28;;;6.60;99.90;;;;;;5010809;28;20125;-58
2021/04/02 02:51:16;;;;;;;13.85;2.10;;;6.60;99.90;;;;;;4993239;28;20476;-58
2021/04/02 02:53:45;;;;;;;14.48;2.42;;;6.40;99.90;;;;;;5010158;28;20077;-59
2021/04/02 02:56:11;;;;;;;16.80;2.50;;;6.50;99.90;;;;;;5010522;28;20058;-59
2021/04/02 02:58:41;;;;;;;12.50;2.08;;;6.50;99.90;;;;;;5010088;28;20026;-59
2021/04/02 03:01:08;;;;;;;12.77;2.13;;;6.50;99.90;;;;;;5010307;28;20026;-56
2021/04/02 03:03:34;;;;;;;12.27;1.95;;;6.50;99.90;;;;;;5010616;28;20080;-58
2021/04/02 03:06:00;;;;;;;15.27;2.30;;;6.50;99.90;;;;;;5010497;28;20025;-58
2021/04/02 03:08:31;;;;;;;14.15;2.38;;;6.50;99.90;;;;;;5010549;28;20053;-57
2021/04/02 03:10:58;;;;;;;22.70;2.90;;;6.50;99.90;;;;;;5012675;28;20033;-59
2021/04/02 03:13:25;;;;;;;14.60;2.17;;;6.60;99.90;;;;;;5013672;28;20076;-58
2021/04/02 03:15:55;;;;;;;12.57;2.15;;;6.60;99.90;;;;;;5017693;28;20036;-58
2021/04/02 03:18:21;;;;;;;13.13;2.15;;;6.50;99.90;;;;;;5034034;28;20091;-58
2021/04/02 03:20:49;;;;;;;10.73;2.00;;;6.60;99.90;;;;;;5028076;28;20108;-60
2021/04/02 03:23:16;;;;;;;10.63;1.77;;;6.40;99.90;;;;;;5026005;28;20148;-57
2021/04/02 03:25:46;;;;;;;15.95;2.38;;;6.40;99.90;;;;;;5018299;28;20037;-58
2021/04/02 03:28:14;;;;;;;8.50;2.00;;;6.30;99.90;;;;;;5025093;28;20041;-57
2021/04/02 03:30:40;;;;;;;11.68;2.28;;;6.30;99.90;;;;;;5020530;28;20379;-58
2021/04/02 03:33:25;;;;;;;10.18;2.00;;;6.20;99.90;;;;;;5024559;28;20040;-60
2021/04/02 03:35:57;;;;;;;12.73;2.00;;;6.20;99.90;;;;;;5019567;28;20056;-59
2021/04/02 03:38:25;;;;;;;9.85;2.00;;;6.30;99.90;;;;;;5015067;28;20029;-58
2021/04/02 03:40:52;;;;;;;11.77;2.45;;;6.30;99.90;;;;;;5019120;28;20095;-58
2021/04/02 03:43:19;;;;;;;9.10;2.20;;;6.40;99.90;;;;;;5022542;28;20033;-55
2021/04/02 03:45:48;;;;;;;12.13;2.40;;;6.40;99.90;;;;;;5019307;28;20034;-57
2021/04/02 03:48:15;;;;;;;13.40;2.50;;;6.40;99.90;;;;;;5019680;28;20034;-57
2021/04/02 03:50:45;;;;;;;11.18;1.98;;;6.40;99.90;;;;;;5027024;28;20087;-58
2021/04/02 03:53:23;;;;;;;10.65;1.90;;;6.40;99.90;;;;;;5018099;28;20029;-59
2021/04/02 03:55:52;;;;;;;12.95;2.22;;;6.40;99.90;;;;;;5032211;28;20030;-57
2021/04/02 03:58:19;;;;;;;18.35;2.28;;;6.40;99.90;;;;;;5024820;28;20108;-58
2021/04/02 04:01:09;;;;;;;10.27;2.05;;;6.40;99.90;;;;;;5027706;28;20182;-58
2021/04/02 04:03:38;;;;;;;13.18;2.38;;;6.30;99.90;;;;;;4999451;28;20045;-56
2021/04/02 04:06:06;;;;;;;13.80;2.10;;;6.40;99.90;;;;;;5027631;28;20052;-58
2021/04/02 04:08:33;;;;;;;10.90;1.77;;;6.30;99.90;;;;;;5021173;28;20029;-59
2021/04/02 04:11:02;;;;;;;16.17;2.20;;;6.30;99.90;;;;;;5032773;28;20036;-57
2021/04/02 04:13:30;;;;;;;10.23;2.20;;;6.40;99.90;;;;;;4996354;28;20396;-57
2021/04/02 04:15:57;;;;;;;11.10;2.20;;;6.40;99.90;;;;;;5022319;28;20033;-58
2021/04/02 04:18:24;;;;;;;13.70;2.53;;;6.40;99.90;;;;;;5012811;28;20157;-58
2021/04/02 04:20:54;;;;;;;11.73;2.20;;;6.30;99.90;;;;;;5015027;28;20033;-59
2021/04/02 04:23:21;;;;;;;12.40;2.10;;;6.40;99.90;;;;;;5027555;28;20495;-56
2021/04/02 04:25:51;;;;;;;9.07;2.00;;;6.40;99.90;;;;;;5021598;28;20041;-57
2021/04/02 04:28:18;;;;;;;18.75;2.35;;;6.40;99.90;;;;;;5008641;28;20037;-57
2021/04/02 04:30:48;;;;;;;11.43;2.53;;;6.40;99.90;;;;;;5006512;28;20021;-57
2021/04/02 04:33:14;;;;;;;13.32;1.90;;;6.40;99.90;;;;;;5025238;28;20053;-59
2021/04/02 04:35:40;;;;;;;12.15;2.35;;;6.40;99.90;;;;;;5022451;28;20033;-56
2021/04/02 04:38:07;;;;;;;15.95;2.20;;;6.40;99.90;;;;;;5023566;28;20036;-59
2021/04/02 04:40:33;;;;;;;10.70;2.30;;;6.40;99.90;;;;;;5021404;28;21958;-55
2021/04/02 04:43:01;;;;;;;23.27;2.75;;;6.30;99.90;;;;;;5030396;28;20432;-57
2021/04/02 04:45:28;;;;;;;10.85;2.25;;;6.40;99.90;;;;;;5021498;28;20396;-59
2021/04/02 04:47:54;;;;;;;14.90;2.10;;;6.40;99.90;;;;;;5022457;28;20121;-58
2021/04/02 04:50:20;;;;;;;15.05;2.65;;;6.50;99.90;;;;;;5015687;28;20042;-57
2021/04/02 04:53:09;;;;;;;12.32;2.63;;;6.50;99.90;;;;;;5016967;28;20026;-59
2021/04/02 04:55:38;;;;;;;10.77;1.90;;;6.50;99.90;;;;;;5013993;28;20117;-58
2021/04/02 04:58:09;;;;;;;13.88;2.28;;;6.50;99.90;;;;;;5019633;28;20096;-57
2021/04/02 05:00:36;;;;;;;17.40;2.30;;;6.30;99.90;;;;;;5026028;28;20041;-59
2021/04/02 05:03:04;;;;;;;17.05;2.22;;;6.30;99.90;;;;;;5018772;28;20034;-56
2021/04/02 05:05:33;;;;;;;20.27;2.28;;;6.30;99.90;;;;;;5025656;28;20049;-57
2021/04/02 05:08:03;;;;;;;12.85;2.00;;;6.50;99.90;;;;;;5013508;28;20030;-59
2021/04/02 05:10:33;;;;;;;8.18;1.95;;;6.50;99.90;;;;;;5022861;28;20446;-58
2021/04/02 05:13:01;;;;;;;11.48;2.17;;;6.40;99.90;;;;;;5025789;28;20112;-60
2021/04/02 05:15:27;;;;;;;10.18;2.13;;;6.40;99.90;;;;;;5019818;28;20120;-56
2021/04/02 05:17:55;;;;;;;10.10;1.90;;;6.40;99.90;;;;;;5027563;28;20079;-58
2021/04/02 05:20:55;;;;;;;9.93;1.85;;;6.40;99.90;;;;;;5024321;28;20395;-57
2021/04/02 05:23:21;;;;;;;11.15;1.77;;;6.50;99.90;;;;;;5016331;28;20053;-58
2021/04/02 05:25:47;;;;;;;15.45;2.35;;;6.50;99.90;;;;;;5019549;28;20037;-59
2021/04/02 05:28:13;;;;;;;14.23;2.00;;;6.40;99.90;;;;;;5020706;28;20443;-58
2021/04/02 05:30:38;;;;;;;10.60;2.08;;;6.50;99.90;;;;;;5018544;28;20033;-59
2021/04/02 05:33:04;;;;;;;14.23;2.35;;;6.50;99.90;;;;;;5031652;28;20037;-58
2021/04/02 05:35:31;;;;;;;16.63;2.63;;;6.40;99.90;;;;;;5017567;28;20033;-58
2021/04/02 05:37:58;;;;;;;13.90;2.28;;;6.40;99.90;;;;;;5030578;28;20087;-58
2021/04/02 05:40:24;;;;;;;13.68;2.30;;;6.40;99.90;;;;;;5017410;28;20076;-58
2021/04/02 05:42:59;;;;;;;17.30;2.75;;;6.30;99.90;;;;;;5031692;28;20014;-58
2021/04/02 05:45:28;;;;;;;11.05;2.17;;;6.30;99.90;;;;;;5016937;28;20121;-60
2021/04/02 05:47:56;;;;;;;8.93;2.03;;;6.40;99.90;;;;;;5029024;28;20026;-57
2021/04/02 05:50:22;;;;;;;13.70;2.08;;;6.40;99.90;;;;;;5016277;28;20084;-58
2021/04/02 05:52:49;;;;;;;17.33;2.20;;;6.30;99.90;;;;;;5021354;28;20037;-58
2021/04/02 05:55:17;;;;;;;10.95;2.30;;;6.30;99.90;;;;;;5004381;28;20033;-59
2021/04/02 05:57:46;;;;;;;13.55;2.60;;;6.40;99.90;;;;;;5025396;28;20064;-58
2021/04/02 06:00:14;;;;;;;11.07;2.45;;;6.30;99.90;;;;;;5023916;28;20112;-59
2021/04/02 06:02:40;;;;;;;9.90;1.98;;;6.30;99.90;;;;;;5031048;28;20029;-57
2021/04/02 06:05:08;;;;;;;14.27;2.40;;;6.30;99.90;;;;;;5027187;28;20442;-56
2021/04/02 06:07:38;;;;;;;9.10;1.67;;;6.30;99.90;;;;;;5025669;28;20472;-58
2021/04/02 06:10:06;;;;;;;11.75;2.40;;;6.30;99.90;;;;;;5026258;28;20388;-56
2021/04/02 06:12:35;;;;;;;10.90;2.03;;;6.20;99.90;;;;;;5026559;28;20507;-57
2021/04/02 06:15:05;;;;;;;11.35;2.25;;;6.30;99.90;;;;;;5018957;28;20025;-55
2021/04/02 06:18:03;;;;;;;10.82;2.00;;;6.30;99.90;;;;;;5017879;28;20037;-58
2021/04/02 06:20:32;;;;;;;9.60;2.20;;;6.40;99.90;;;;;;5018138;28;20037;-57
2021/04/02 06:23:14;;;;;;;18.67;2.20;;;6.40;99.90;;;;;;5014240;28;20069;-57
2021/04/02 06:25:49;;;;;;;11.48;2.03;;;6.40;99.90;;;;;;5014546;28;20052;-59
2021/04/02 06:28:19;;;;;;;10.50;1.65;;;6.30;99.90;;;;;;5018178;28;20040;-60
2021/04/02 06:30:48;;;;;;;8.05;1.90;;;6.30;99.90;;;;;;5010348;28;20040;-57
2021/04/02 06:33:15;;;;;;;14.35;1.95;;;6.30;99.90;;;;;;5010525;28;20022;-58
2021/04/02 06:35:42;;;;;;;20.10;2.50;;;6.30;99.90;;;;;;5008666;28;20045;-57
2021/04/02 06:38:08;;;;;;;8.90;1.70;;;6.30;99.90;;;;;;5006547;28;20458;-59
2021/04/02 06:40:35;;;;;;;14.43;2.28;;;6.40;99.90;;;;;;5006827;28;20075;-57
2021/04/02 06:43:03;;;;;;;9.73;1.48;;;6.50;99.90;;;;;;5006424;28;20048;-59
2021/04/02 06:45:29;;;;;;;24.73;7.45;;;6.60;99.90;;;;;;5008079;28;20435;-58
2021/04/02 06:48:09;;;;;;;10.57;2.35;;;6.60;99.90;;;;;;4997567;28;20088;-60
2021/04/02 06:50:35;;;;;;;12.70;2.40;;;6.60;99.90;;;;;;5015756;28;20038;-55
2021/04/02 06:53:03;;;;;;;18.63;2.67;;;6.50;99.90;;;;;;5011350;28;20822;-59
2021/04/02 06:55:30;;;;;;;11.88;1.60;;;6.50;99.90;;;;;;5014183;28;20037;-57
2021/04/02 06:58:04;;;;;;;9.13;1.63;;;6.50;99.90;;;;;;5017149;28;20526;-58
2021/04/02 07:00:30;;;;;;;16.17;2.30;;;6.60;99.90;;;;;;5010416;28;20026;-58
2021/04/02 07:02:56;;;;;;;12.07;2.08;;;6.60;99.90;;;;;;5009817;28;20040;-58
2021/04/02 07:05:24;;;;;;;11.57;2.00;;;6.50;99.90;;;;;;5010942;28;20042;-55
2021/04/02 07:08:01;;;;;;;14.02;2.97;;;6.60;99.90;;;;;;5013897;28;20069;-56
2021/04/02 07:10:28;;;;;;;12.90;2.30;;;6.70;99.90;;;;;;5021776;28;20029;-57
2021/04/02 07:12:55;;;;;;;14.43;2.20;;;6.60;99.90;;;;;;5021391;28;20057;-57
2021/04/02 07:15:21;;;;;;;15.15;2.33;;;6.60;99.90;;;;;;5012341;28;20029;-57
2021/04/02 07:17:48;;;;;;;10.10;2.10;;;6.60;99.90;;;;;;5024460;28;20072;-58
2021/04/02 07:20:15;;;;;;;10.38;2.10;;;6.60;99.90;;;;;;5033797;28;20033;-58
2021/04/02 07:22:44;;;;;;;13.98;2.35;;;6.80;99.90;;;;;;5024133;28;20143;-58
2021/04/02 07:25:10;;;;;;;14.07;2.20;;;6.80;99.90;;;;;;5029409;28;20121;-58
2021/04/02 07:27:38;;;;;;;16.40;2.08;;;6.70;99.90;;;;;;5032043;28;20037;-59
2021/04/02 07:30:09;;;;;;;10.95;2.33;;;6.80;99.90;;;;;;5032816;28;20034;-59
2021/04/02 07:32:41;;;;;;;16.05;2.78;;;6.80;99.90;;;;;;5032336;28;20116;-59
2021/04/02 07:35:14;;;;;;;14.68;1.95;;;6.80;99.90;;;;;;5027364;28;20041;-57
2021/04/02 07:37:40;;;;;;;14.27;2.45;;;6.80;99.90;;;;;;5029638;28;20026;-57
2021/04/02 07:40:10;;;;;;;17.95;2.40;;;6.80;99.90;;;;;;5032657;28;20032;-58
2021/04/02 07:42:37;;;;;;;10.73;2.30;;;6.70;99.90;;;;;;5036032;28;20033;-59
2021/04/02 07:45:05;;;;;;;15.43;2.33;;;6.80;99.90;;;;;;5031427;28;20037;-58
2021/04/02 07:47:31;;;;;;;15.27;2.13;;;6.90;99.90;;;;;;5031889;28;20033;-58
2021/04/02 07:50:01;;;;;;;13.75;2.80;;;6.90;99.90;;;;;;5032392;28;20806;-58
2021/04/02 07:52:37;;;;;;;16.48;2.60;;;7.00;99.90;;;;;;5031905;28;20065;-60
2021/04/02 07:55:15;;;;;;;11.10;1.92;;;7.00;99.90;;;;;;5031974;28;20121;-56
2021/04/02 07:58:01;;;;;;;11.52;2.25;;;7.00;99.90;;;;;;5030765;28;20479;-57
2021/04/02 08:00:34;;;;;;;10.45;2.22;;;7.00;99.90;;;;;;5029652;28;20069;-57
2021/04/02 08:03:10;;;;;;;18.75;4.78;;;7.10;99.90;;;;;;5032365;28;20029;-58
2021/04/02 08:05:37;;;;;;;16.88;2.22;;;7.10;99.90;;;;;;5027652;28;20131;-56
2021/04/02 08:08:08;;;;;;;13.90;2.15;;;7.10;99.90;;;;;;5032212;28;20032;-57
2021/04/02 08:10:34;;;;;;;15.07;2.47;;;7.10;99.90;;;;;;5031590;28;20053;-59
2021/04/02 08:13:14;;;;;;;25.27;5.85;;;7.10;99.90;;;;;;5030374;28;20374;-59
2021/04/02 08:15:40;;;;;;;13.50;2.75;;;7.10;99.90;;;;;;5032048;28;20037;-60
2021/04/02 08:18:17;;;;;;;14.05;2.63;;;7.20;99.90;;;;;;5030297;28;20099;-59
2021/04/02 08:20:43;;;;;;;9.85;2.28;;;7.20;99.90;;;;;;5030822;28;20044;-58
2021/04/02 08:23:10;;;;;;;14.82;2.58;;;7.30;99.90;;;;;;5031430;28;20041;-58
2021/04/02 08:25:35;;;;;;;13.40;2.22;;;7.30;99.90;;;;;;5030891;28;20029;-58
2021/04/02 08:28:01;;;;;;;12.05;2.20;;;7.40;99.90;;;;;;5012794;28;20038;-58
2021/04/02 08:30:28;;;;;;;15.57;2.10;;;7.40;99.90;;;;;;5032569;28;20030;-59
2021/04/02 08:32:56;;;;;;;18.15;2.92;;;7.40;99.90;;;;;;5031936;28;20026;-58
2021/04/02 08:35:22;;;;;;;13.32;2.55;;;7.40;99.90;;;;;;5030856;28;20113;-57
2021/04/02 08:38:02;;;;;;;15.63;2.90;;;7.40;99.90;;;;;;5031366;28;20104;-56
2021/04/02 08:40:28;;;;;;;18.17;2.45;;;7.40;99.90;;;;;;5031349;28;20220;-57
2021/04/02 08:43:05;;;;;;;21.73;2.88;;;7.40;99.90;;;;;;5030691;28;20033;-57
2021/04/02 08:45:35;;;;;;;15.35;2.78;;;7.50;99.90;;;;;;5031224;28;20033;-59
2021/04/02 08:48:01;;;;;;;14.27;2.45;;;7.60;99.90;;;;;;5031918;28;20044;-58
2021/04/02 08:50:28;;;;;;;13.93;2.55;;;7.60;99.90;;;;;;5031155;28;20033;-59
2021/04/02 08:53:03;;;;;;;10.23;2.30;;;7.70;99.90;;;;;;5031170;28;20075;-59
2021/04/02 08:55:29;;;;;;;17.73;2.13;;;7.80;99.90;;;;;;5030655;28;20033;-57
2021/04/02 08:57:55;;;;;;;21.73;2.60;;;7.80;99.90;;;;;;5031600;28;20040;-61
2021/04/02 09:00:22;;;;;;;22.60;3.22;;;7.90;99.90;;;;;;5031949;28;20079;-59
2021/04/02 09:02:48;;;;;;;26.42;2.55;;;7.90;99.90;;;;;;5029943;28;20029;-57
2021/04/02 09:05:14;;;;;;;18.77;2.80;;;7.90;99.90;;;;;;5031602;28;20052;-56
2021/04/02 09:07:41;;;;;;;15.50;2.20;;;7.80;99.90;;;;;;5030488;28;20029;-60
2021/04/02 09:10:18;;;;;;;16.73;2.50;;;7.80;99.90;;;;;;5030910;28;20076;-59
2021/04/02 09:12:46;;;;;;;31.60;12.30;;;7.90;99.90;;;;;;5015427;28;20048;-59
2021/04/02 09:15:23;;;;;;;13.35;2.35;;;8.00;99.90;;;;;;5030171;28;20034;-57
2021/04/02 09:17:49;;;;;;;17.55;2.25;;;7.90;99.90;;;;;;5031626;28;20074;-55
2021/04/02 09:20:16;;;;;;;10.20;1.98;;;8.00;99.90;;;;;;5030973;28;20388;-58
2021/04/02 09:22:44;;;;;;;12.18;1.98;;;8.10;99.90;;;;;;5021384;28;20046;-58
2021/04/02 09:25:21;;;;;;;10.88;2.10;;;8.00;99.90;;;;;;5009220;28;20084;-59
2021/04/02 09:27:47;;;;;;;10.80;1.98;;;8.00;99.90;;;;;;5012382;28;20036;-58
2021/04/02 09:30:25;;;;;;;15.50;1.75;;;8.00;99.90;;;;;;5017943;28;20447;-60
2021/04/02 09:32:52;;;;;;;14.10;1.92;;;7.90;99.90;;;;;;5018082;28;20091;-58
2021/04/02 09:35:18;;;;;;;11.38;2.20;;;7.90;99.90;;;;;;5016923;28;20038;-58
2021/04/02 09:37:44;;;;;;;9.45;2.00;;;7.90;99.90;;;;;;5015512;28;20034;-58
2021/04/02 09:40:10;;;;;;;13.05;2.20;;;8.00;99.90;;;;;;5010753;28;20080;-59
2021/04/02 09:42:37;;;;;;;15.95;2.20;;;8.00;99.90;;;;;;5013691;28;20030;-59
2021/04/02 09:45:10;;;;;;;15.10;1.65;;;8.00;99.90;;;;;;5019657;28;20042;-59
2021/04/02 09:47:44;;;;;;;12.38;2.20;;;8.10;99.90;;;;;;5012078;28;20105;-57
2021/04/02 09:50:12;;;;;;;13.00;2.10;;;8.10;99.90;;;;;;5007448;28;20026;-58
2021/04/02 09:52:39;;;;;;;13.40;1.77;;;8.10;99.90;;;;;;5010797;28;20025;-59
2021/04/02 09:55:06;;;;;;;18.25;1.92;;;8.20;99.90;;;;;;5013803;28;20018;-59
2021/04/02 09:57:33;;;;;;;27.77;2.38;;;8.30;99.90;;;;;;5012614;28;20091;-58
2021/04/02 09:59:59;;;;;;;11.23;1.95;;;8.40;99.90;;;;;;5013795;28;20029;-58
2021/04/02 10:02:24;;;;;;;10.07;1.92;;;8.40;99.90;;;;;;5022895;28;20384;-58
2021/04/02 10:04:50;;;;;;;9.88;2.95;;;8.40;99.90;;;;;;5022192;28;20034;-61
2021/04/02 10:07:16;;;;;;;13.50;2.20;;;8.30;99.90;;;;;;5011854;28;20503;-57
2021/04/02 10:09:41;;;;;;;9.75;1.77;;;8.30;99.90;;;;;;5012919;28;20025;-59
2021/04/02 10:12:08;;;;;;;18.42;2.30;;;8.50;99.90;;;;;;5012227;28;20030;-57
2021/04/02 10:14:34;;;;;;;15.20;3.55;;;8.60;99.90;;;;;;5010710;28;20029;-59
2021/04/02 10:17:00;;;;;;;12.23;1.80;;;8.60;99.90;;;;;;5016751;28;20034;-57
2021/04/02 10:19:25;;;;;;;13.23;1.88;;;8.60;99.90;;;;;;5010384;28;20475;-56
2021/04/02 10:21:51;;;;;;;17.05;2.38;;;8.50;99.90;;;;;;5029740;28;20052;-59
2021/04/02 10:24:17;;;;;;;8.30;2.28;;;8.70;99.90;;;;;;5023549;28;20442;-59
2021/04/02 10:26:43;;;;;;;11.80;2.22;;;8.80;99.90;;;;;;5020170;28;20040;-58
2021/04/02 10:29:09;;;;;;;10.07;1.90;;;9.00;99.90;;;;;;5016712;28;20026;-60
2021/04/02 10:31:35;;;;;;;12.65;3.45;;;8.90;99.90;;;;;;5015599;28;20084;-57
2021/04/02 10:34:01;;;;;;;15.52;2.05;;;9.20;99.90;;;;;;5018763;28;20030;-56
2021/04/02 10:36:27;;;;;;;11.00;1.73;;;9.20;99.90;;;;;;5014484;28;20026;-54
2021/04/02 10:38:53;;;;;;;12.38;2.20;;;9.10;99.90;;;;;;5017976;28;20090;-56
2021/04/02 10:41:19;;;;;;;11.95;2.47;;;9.10;99.90;;;;;;5014967;28;20093;-54
2021/04/02 10:43:44;;;;;;;15.13;1.80;;;9.30;99.90;;;;;;5014377;28;20026;-54
2021/04/02 10:46:12;;;;;;;8.88;2.13;;;9.50;99.90;;;;;;5026153;28;20038;-57
2021/04/02 10:48:38;;;;;;;8.63;1.70;;;9.40;99.90;;;;;;5018236;28;20026;-57
2021/04/02 10:51:04;;;;;;;8.30;2.10;;;9.40;99.90;;;;;;5019750;28;20034;-60
2021/04/02 10:53:30;;;;;;;10.35;1.98;;;9.50;99.90;;;;;;5015733;28;20038;-60
2021/04/02 10:56:00;;;;;;;14.57;2.10;;;9.40;99.90;;;;;;5014315;28;20484;-60
2021/04/02 10:58:28;;;;;;;11.48;2.15;;;9.40;99.90;;;;;;5020645;28;20388;-61
2021/04/02 11:00:53;;;;;;;8.82;1.73;;;9.50;99.90;;;;;;5025196;28;20033;-60
2021/04/02 11:03:19;;;;;;;11.77;2.25;;;9.50;99.90;;;;;;5034243;28;20021;-61
2021/04/02 11:05:45;;;;;;;12.40;1.90;;;9.80;99.90;;;;;;5028132;28;20029;-62
2021/04/02 11:08:11;;;;;;;11.43;1.77;;;9.80;99.90;;;;;;5025052;28;20042;-60
2021/04/02 11:10:36;;;;;;;5.88;1.38;;;9.70;99.90;;;;;;5025092;28;20022;-61
2021/04/02 11:13:02;;;;;;;9.23;2.00;;;9.60;99.90;;;;;;5030716;28;20053;-60
2021/04/02 11:15:28;;;;;;;10.57;1.67;;;9.70;99.90;;;;;;5026003;28;20037;-61
2021/04/02 11:17:53;;;;;;;5.97;1.80;;;9.80;99.90;;;;;;5020036;28;20109;-61
2021/04/02 11:20:21;;;;;;;14.68;2.70;;;9.60;99.90;;;;;;5026533;28;20071;-61
2021/04/02 11:22:48;;;;;;;11.02;2.15;;;9.60;99.90;;;;;;5027525;28;20053;-60
2021/04/02 11:25:14;;;;;;;10.38;1.85;;;9.50;99.90;;;;;;5018333;28;20396;-60
2021/04/02 11:27:42;;;;;;;10.65;1.90;;;9.30;99.90;;;;;;5022436;28;20029;-61
2021/04/02 11:30:10;;;;;;;11.38;1.83;;;9.40;99.90;;;;;;5022081;28;20038;-61
2021/04/02 11:32:36;;;;;;;17.08;1.90;;;9.50;99.90;;;;;;5019974;28;20040;-61
2021/04/02 11:35:02;;;;;;;7.03;1.73;;;9.50;99.90;;;;;;5027164;28;20033;-61
2021/04/02 11:37:28;;;;;;;14.25;2.60;;;9.50;99.90;;;;;;5018487;28;20033;-60
2021/04/02 11:39:54;;;;;;;12.55;1.90;;;9.50;99.90;;;;;;5024184;28;20041;-61
2021/04/02 11:42:19;;;;;;;14.82;2.28;;;9.60;99.90;;;;;;5020364;28;20099;-60
2021/04/02 11:44:45;;;;;;;15.98;2.20;;;9.60;99.90;;;;;;5033609;28;20468;-61
2021/04/02 11:47:11;;;;;;;20.90;2.10;;;9.70;99.90;;;;;;5014150;28;20391;-62
2021/04/02 11:49:39;;;;;;;8.38;2.00;;;9.70;99.90;;;;;;5025836;28;20033;-61
2021/04/02 11:52:08;;;;;;;9.45;1.88;;;9.70;99.90;;;;;;5025770;28;20048;-62
2021/04/02 11:54:34;;;;;;;9.63;1.83;;;9.70;99.90;;;;;;4999937;28;20029;-60
2021/04/02 11:56:59;;;;;;;10.93;2.17;;;9.70;99.90;;;;;;5025240;28;20116;-61
2021/04/02 11:59:25;;;;;;;16.40;2.05;;;9.60;99.90;;;;;;5029080;28;20164;-61
2021/04/02 12:01:51;;;;;;;8.32;1.80;;;9.60;99.90;;;;;;5016730;28;20073;-62
2021/04/02 12:04:18;;;;;;;5.85;1.65;;;9.70;99.90;;;;;;5013782;28;20037;-61
2021/04/02 12:06:43;;;;;;;11.98;2.15;;;10.00;99.90;;;;;;5021236;28;20036;-61
2021/04/02 12:09:12;;;;;;;8.40;1.67;;;10.10;99.90;;;;;;5013233;28;20396;-60
2021/04/02 12:11:38;;;;;;;13.18;2.03;;;10.10;99.90;;;;;;5029862;28;20727;-61
2021/04/02 12:14:06;;;;;;;8.85;1.70;;;9.80;99.90;;;;;;5015249;28;20041;-62
2021/04/02 12:16:32;;;;;;;9.68;1.88;;;9.80;99.90;;;;;;5005780;28;20029;-62
2021/04/02 12:18:58;;;;;;;8.73;1.90;;;9.80;99.90;;;;;;5024094;28;20101;-61
2021/04/02 12:21:25;;;;;;;10.32;1.90;;;9.90;99.90;;;;;;5028400;28;20115;-61
2021/04/02 12:23:50;;;;;;;14.48;2.38;;;9.80;99.90;;;;;;5021249;28;20037;-60
2021/04/02 12:26:16;;;;;;;11.23;1.98;;;9.90;99.90;;;;;;5022816;28;20034;-61
2021/04/02 12:28:42;;;;;;;9.70;2.35;;;10.10;99.90;;;;;;5026210;28;20080;-61
2021/04/02 12:31:07;;;;;;;19.30;2.50;;;10.20;99.90;;;;;;5013472;28;20061;-61
2021/04/02 12:33:33;;;;;;;13.68;2.80;;;10.20;99.90;;;;;;5014277;28;20076;-61
2021/04/02 12:35:59;;;;;;;11.38;1.98;;;10.10;99.90;;;;;;5015805;28;20030;-61
2021/04/02 12:38:26;;;;;;;9.13;1.70;;;10.00;99.90;;;;;;5017709;28;20030;-61
2021/04/02 12:40:52;;;;;;;20.63;2.70;;;9.80;99.90;;;;;;5012542;28;20495;-61
2021/04/02 12:43:18;;;;;;;11.77;2.10;;;9.80;99.90;;;;;;5018301;28;20034;-61
2021/04/02 12:45:44;;;;;;;8.63;1.75;;;9.60;99.90;;;;;;5018393;28;20042;-60
2021/04/02 12:48:10;;;;;;;10.57;2.20;;;9.80;99.90;;;;;;5016380;28;20034;-61
2021/04/02 12:50:36;;;;;;;13.10;2.15;;;10.00;99.90;;;;;;5016150;28;20088;-61
2021/04/02 12:53:02;;;;;;;19.50;2.22;;;10.30;99.90;;;;;;5031334;28;20097;-60
2021/04/02 12:55:29;;;;;;;19.75;2.58;;;10.20;99.90;;;;;;5011100;28;20065;-61